sensor_id;sensor_type;location;lat;lon;timestamp;temperature;humidity
52103;DHT22;38101;53.126;6.878;2023-06-14T00:01:02;17.50;82.10
52103;DHT22;38101;53.126;6.878;2023-06-14T00:03:32;17.40;82.40
52103;DHT22;38101;53.126;6.878;2023-06-14T00:05:58;17.30;82.40
52103;DHT22;38101;53.126;6.878;2023-06-14T00:08:24;17.30;82.40
52103;DHT22;38101;53.126;6.878;2023-06-14T00:10:51;17.40;82.60
52103;DHT22;38101;53.126;6.878;2023-06-14T00:13:16;17.40;82.80
52103;DHT22;38101;53.126;6.878;2023-06-14T00:15:42;17.30;83.30
52103;DHT22;38101;53.126;6.878;2023-06-14T00:18:08;17.30;83.80
52103;DHT22;38101;53.126;6.878;2023-06-14T00:20:35;17.20;83.50
52103;DHT22;38101;53.126;6.878;2023-06-14T00:23:01;17.20;83.90
52103;DHT22;38101;53.126;6.878;2023-06-14T00:25:26;17.20;84.00
52103;DHT22;38101;53.126;6.878;2023-06-14T00:27:53;17.10;84.00
52103;DHT22;38101;53.126;6.878;2023-06-14T00:30:19;17.10;84.60
52103;DHT22;38101;53.126;6.878;2023-06-14T00:32:45;17.00;85.50
52103;DHT22;38101;53.126;6.878;2023-06-14T00:35:12;17.00;85.20
52103;DHT22;38101;53.126;6.878;2023-06-14T00:37:38;16.90;85.90
52103;DHT22;38101;53.126;6.878;2023-06-14T00:40:05;16.90;86.30
52103;DHT22;38101;53.126;6.878;2023-06-14T00:42:31;16.80;86.60
52103;DHT22;38101;53.126;6.878;2023-06-14T00:44:57;16.70;86.70
52103;DHT22;38101;53.126;6.878;2023-06-14T00:47:23;16.70;87.20
52103;DHT22;38101;53.126;6.878;2023-06-14T00:49:53;16.70;87.50
52103;DHT22;38101;53.126;6.878;2023-06-14T00:52:21;16.70;88.20
52103;DHT22;38101;53.126;6.878;2023-06-14T00:54:47;16.70;87.60
52103;DHT22;38101;53.126;6.878;2023-06-14T00:57:13;16.60;88.00
52103;DHT22;38101;53.126;6.878;2023-06-14T00:59:44;16.60;88.00
52103;DHT22;38101;53.126;6.878;2023-06-14T01:02:10;16.50;88.50
52103;DHT22;38101;53.126;6.878;2023-06-14T01:04:38;16.50;87.90
52103;DHT22;38101;53.126;6.878;2023-06-14T01:10:10;16.50;89.60
52103;DHT22;38101;53.126;6.878;2023-06-14T01:12:48;16.40;89.30
52103;DHT22;38101;53.126;6.878;2023-06-14T01:15:17;16.40;89.30
52103;DHT22;38101;53.126;6.878;2023-06-14T01:17:44;16.40;89.80
52103;DHT22;38101;53.126;6.878;2023-06-14T01:20:12;16.30;90.10
52103;DHT22;38101;53.126;6.878;2023-06-14T01:22:53;16.20;90.00
52103;DHT22;38101;53.126;6.878;2023-06-14T01:25:22;16.20;90.60
52103;DHT22;38101;53.126;6.878;2023-06-14T01:27:50;16.10;90.80
52103;DHT22;38101;53.126;6.878;2023-06-14T01:30:17;16.10;90.80
52103;DHT22;38101;53.126;6.878;2023-06-14T01:32:44;16.00;90.90
52103;DHT22;38101;53.126;6.878;2023-06-14T01:35:10;16.00;91.00
52103;DHT22;38101;53.126;6.878;2023-06-14T01:37:36;16.00;91.10
52103;DHT22;38101;53.126;6.878;2023-06-14T01:40:04;16.00;91.10
52103;DHT22;38101;53.126;6.878;2023-06-14T01:42:35;15.90;91.40
52103;DHT22;38101;53.126;6.878;2023-06-14T01:45:03;15.90;91.20
52103;DHT22;38101;53.126;6.878;2023-06-14T01:47:30;15.90;91.40
52103;DHT22;38101;53.126;6.878;2023-06-14T01:49:56;15.80;91.30
52103;DHT22;38101;53.126;6.878;2023-06-14T01:52:22;15.80;91.70
52103;DHT22;38101;53.126;6.878;2023-06-14T01:54:50;15.80;91.60
52103;DHT22;38101;53.126;6.878;2023-06-14T01:57:16;15.80;91.50
52103;DHT22;38101;53.126;6.878;2023-06-14T01:59:42;15.70;91.60
52103;DHT22;38101;53.126;6.878;2023-06-14T02:02:07;15.70;92.00
52103;DHT22;38101;53.126;6.878;2023-06-14T02:04:33;15.70;91.70
52103;DHT22;38101;53.126;6.878;2023-06-14T02:06:59;15.60;92.00
52103;DHT22;38101;53.126;6.878;2023-06-14T02:09:25;15.60;92.60
52103;DHT22;38101;53.126;6.878;2023-06-14T02:11:51;15.50;92.80
52103;DHT22;38101;53.126;6.878;2023-06-14T02:14:17;15.50;92.90
52103;DHT22;38101;53.126;6.878;2023-06-14T02:16:43;15.50;93.10
52103;DHT22;38101;53.126;6.878;2023-06-14T02:19:17;15.40;92.90
52103;DHT22;38101;53.126;6.878;2023-06-14T02:21:44;15.40;93.00
52103;DHT22;38101;53.126;6.878;2023-06-14T02:24:10;15.30;93.50
52103;DHT22;38101;53.126;6.878;2023-06-14T02:26:36;15.30;93.80
52103;DHT22;38101;53.126;6.878;2023-06-14T02:29:04;15.20;93.60
52103;DHT22;38101;53.126;6.878;2023-06-14T02:31:31;15.30;93.90
52103;DHT22;38101;53.126;6.878;2023-06-14T02:33:57;15.20;94.10
52103;DHT22;38101;53.126;6.878;2023-06-14T02:36:22;15.20;94.20
52103;DHT22;38101;53.126;6.878;2023-06-14T02:38:48;15.20;94.60
52103;DHT22;38101;53.126;6.878;2023-06-14T02:41:14;15.10;94.60
52103;DHT22;38101;53.126;6.878;2023-06-14T02:43:40;15.10;94.60
52103;DHT22;38101;53.126;6.878;2023-06-14T02:46:05;15.10;94.80
52103;DHT22;38101;53.126;6.878;2023-06-14T02:48:32;15.10;95.00
52103;DHT22;38101;53.126;6.878;2023-06-14T02:50:58;15.00;95.00
52103;DHT22;38101;53.126;6.878;2023-06-14T02:53:23;15.00;95.00
52103;DHT22;38101;53.126;6.878;2023-06-14T02:55:49;15.00;95.30
52103;DHT22;38101;53.126;6.878;2023-06-14T02:58:15;15.00;95.20
52103;DHT22;38101;53.126;6.878;2023-06-14T03:00:42;15.00;95.40
52103;DHT22;38101;53.126;6.878;2023-06-14T03:03:08;15.00;95.40
52103;DHT22;38101;53.126;6.878;2023-06-14T03:05:43;15.00;95.30
52103;DHT22;38101;53.126;6.878;2023-06-14T03:08:12;15.00;95.70
52103;DHT22;38101;53.126;6.878;2023-06-14T03:10:43;14.90;95.90
52103;DHT22;38101;53.126;6.878;2023-06-14T03:13:09;14.90;96.20
52103;DHT22;38101;53.126;6.878;2023-06-14T03:15:36;14.90;96.20
52103;DHT22;38101;53.126;6.878;2023-06-14T03:18:02;14.90;96.50
52103;DHT22;38101;53.126;6.878;2023-06-14T03:20:29;14.80;96.80
52103;DHT22;38101;53.126;6.878;2023-06-14T03:22:59;14.80;96.70
52103;DHT22;38101;53.126;6.878;2023-06-14T03:25:25;14.80;97.10
52103;DHT22;38101;53.126;6.878;2023-06-14T03:27:51;14.80;97.30
52103;DHT22;38101;53.126;6.878;2023-06-14T03:30:17;14.80;97.40
52103;DHT22;38101;53.126;6.878;2023-06-14T03:32:43;14.70;97.60
52103;DHT22;38101;53.126;6.878;2023-06-14T03:35:08;14.80;97.50
52103;DHT22;38101;53.126;6.878;2023-06-14T03:37:42;14.80;97.80
52103;DHT22;38101;53.126;6.878;2023-06-14T03:40:08;14.80;97.80
52103;DHT22;38101;53.126;6.878;2023-06-14T03:42:34;14.80;98.00
52103;DHT22;38101;53.126;6.878;2023-06-14T03:45:00;14.80;97.80
52103;DHT22;38101;53.126;6.878;2023-06-14T03:47:25;14.80;98.40
52103;DHT22;38101;53.126;6.878;2023-06-14T03:49:52;14.80;98.30
52103;DHT22;38101;53.126;6.878;2023-06-14T03:52:18;14.80;98.30
52103;DHT22;38101;53.126;6.878;2023-06-14T03:54:43;14.90;98.20
52103;DHT22;38101;53.126;6.878;2023-06-14T03:57:10;14.90;98.30
52103;DHT22;38101;53.126;6.878;2023-06-14T03:59:36;14.90;98.40
52103;DHT22;38101;53.126;6.878;2023-06-14T04:02:02;14.90;98.80
52103;DHT22;38101;53.126;6.878;2023-06-14T04:04:28;14.90;99.00
52103;DHT22;38101;53.126;6.878;2023-06-14T04:06:55;15.00;98.90
52103;DHT22;38101;53.126;6.878;2023-06-14T04:09:23;15.00;99.00
52103;DHT22;38101;53.126;6.878;2023-06-14T04:11:51;15.00;98.80
52103;DHT22;38101;53.126;6.878;2023-06-14T04:14:18;15.10;98.70
52103;DHT22;38101;53.126;6.878;2023-06-14T04:16:45;15.10;99.00
52103;DHT22;38101;53.126;6.878;2023-06-14T04:19:11;15.10;99.10
52103;DHT22;38101;53.126;6.878;2023-06-14T04:21:37;15.20;99.40
52103;DHT22;38101;53.126;6.878;2023-06-14T04:24:03;15.20;99.20
52103;DHT22;38101;53.126;6.878;2023-06-14T04:26:28;15.20;99.50
52103;DHT22;38101;53.126;6.878;2023-06-14T04:28:55;15.20;99.30
52103;DHT22;38101;53.126;6.878;2023-06-14T04:31:23;15.30;99.20
52103;DHT22;38101;53.126;6.878;2023-06-14T04:33:50;15.30;99.20
52103;DHT22;38101;53.126;6.878;2023-06-14T04:36:18;15.30;99.40
52103;DHT22;38101;53.126;6.878;2023-06-14T04:38:44;15.40;99.80
52103;DHT22;38101;53.126;6.878;2023-06-14T04:41:12;15.40;99.70
52103;DHT22;38101;53.126;6.878;2023-06-14T04:43:38;15.40;99.50
52103;DHT22;38101;53.126;6.878;2023-06-14T04:46:07;15.40;99.60
52103;DHT22;38101;53.126;6.878;2023-06-14T04:48:39;15.50;99.60
52103;DHT22;38101;53.126;6.878;2023-06-14T04:51:07;15.50;99.90
52103;DHT22;38101;53.126;6.878;2023-06-14T04:53:32;15.50;99.90
52103;DHT22;38101;53.126;6.878;2023-06-14T04:55:59;15.50;99.80
52103;DHT22;38101;53.126;6.878;2023-06-14T04:58:26;15.60;99.90
52103;DHT22;38101;53.126;6.878;2023-06-14T05:00:53;15.60;99.90
52103;DHT22;38101;53.126;6.878;2023-06-14T05:03:19;15.70;99.80
52103;DHT22;38101;53.126;6.878;2023-06-14T05:05:46;15.70;99.90
52103;DHT22;38101;53.126;6.878;2023-06-14T05:08:12;15.70;99.80
52103;DHT22;38101;53.126;6.878;2023-06-14T05:10:38;15.80;99.90
52103;DHT22;38101;53.126;6.878;2023-06-14T05:13:03;15.80;99.90
52103;DHT22;38101;53.126;6.878;2023-06-14T05:15:29;15.80;99.90
52103;DHT22;38101;53.126;6.878;2023-06-14T05:17:55;15.80;99.90
52103;DHT22;38101;53.126;6.878;2023-06-14T05:20:22;15.90;99.90
52103;DHT22;38101;53.126;6.878;2023-06-14T05:22:51;15.90;99.90
52103;DHT22;38101;53.126;6.878;2023-06-14T05:25:18;15.90;99.90
52103;DHT22;38101;53.126;6.878;2023-06-14T05:27:44;15.90;99.90
52103;DHT22;38101;53.126;6.878;2023-06-14T05:30:10;16.00;99.90
52103;DHT22;38101;53.126;6.878;2023-06-14T05:32:36;16.00;99.90
52103;DHT22;38101;53.126;6.878;2023-06-14T05:35:01;16.00;99.90
52103;DHT22;38101;53.126;6.878;2023-06-14T05:37:27;16.10;99.90
52103;DHT22;38101;53.126;6.878;2023-06-14T05:39:53;16.10;99.90
52103;DHT22;38101;53.126;6.878;2023-06-14T05:42:18;16.20;99.90
52103;DHT22;38101;53.126;6.878;2023-06-14T05:44:44;16.20;99.90
52103;DHT22;38101;53.126;6.878;2023-06-14T05:47:09;16.30;99.90
52103;DHT22;38101;53.126;6.878;2023-06-14T05:49:35;16.40;99.90
52103;DHT22;38101;53.126;6.878;2023-06-14T05:52:01;16.40;99.90
52103;DHT22;38101;53.126;6.878;2023-06-14T05:54:26;16.50;99.90
52103;DHT22;38101;53.126;6.878;2023-06-14T05:56:52;16.50;99.90
52103;DHT22;38101;53.126;6.878;2023-06-14T05:59:18;16.50;99.90
52103;DHT22;38101;53.126;6.878;2023-06-14T06:01:43;16.60;99.80
52103;DHT22;38101;53.126;6.878;2023-06-14T06:04:09;16.60;99.80
52103;DHT22;38101;53.126;6.878;2023-06-14T06:06:35;16.70;99.70
52103;DHT22;38101;53.126;6.878;2023-06-14T06:09:01;16.70;99.80
52103;DHT22;38101;53.126;6.878;2023-06-14T06:11:27;16.80;99.80
52103;DHT22;38101;53.126;6.878;2023-06-14T06:13:53;16.80;99.70
52103;DHT22;38101;53.126;6.878;2023-06-14T06:16:18;16.90;99.60
52103;DHT22;38101;53.126;6.878;2023-06-14T06:18:44;17.00;99.40
52103;DHT22;38101;53.126;6.878;2023-06-14T06:21:10;17.10;99.30
52103;DHT22;38101;53.126;6.878;2023-06-14T06:23:35;17.10;99.60
52103;DHT22;38101;53.126;6.878;2023-06-14T06:26:02;17.20;99.30
52103;DHT22;38101;53.126;6.878;2023-06-14T06:28:28;17.20;99.30
52103;DHT22;38101;53.126;6.878;2023-06-14T06:30:54;17.30;99.30
52103;DHT22;38101;53.126;6.878;2023-06-14T06:33:20;17.40;99.40
52103;DHT22;38101;53.126;6.878;2023-06-14T06:35:45;17.50;99.30
52103;DHT22;38101;53.126;6.878;2023-06-14T06:38:11;17.50;98.90
52103;DHT22;38101;53.126;6.878;2023-06-14T06:40:36;17.60;98.90
52103;DHT22;38101;53.126;6.878;2023-06-14T06:43:02;17.70;98.70
52103;DHT22;38101;53.126;6.878;2023-06-14T06:45:28;17.80;98.70
52103;DHT22;38101;53.126;6.878;2023-06-14T06:47:54;17.80;98.60
52103;DHT22;38101;53.126;6.878;2023-06-14T06:50:21;17.90;98.70
52103;DHT22;38101;53.126;6.878;2023-06-14T06:52:49;18.00;98.40
52103;DHT22;38101;53.126;6.878;2023-06-14T06:55:14;18.10;98.20
52103;DHT22;38101;53.126;6.878;2023-06-14T06:57:40;18.10;98.20
52103;DHT22;38101;53.126;6.878;2023-06-14T07:00:07;18.20;98.00
52103;DHT22;38101;53.126;6.878;2023-06-14T07:02:36;18.30;97.80
52103;DHT22;38101;53.126;6.878;2023-06-14T07:05:02;18.40;97.50
52103;DHT22;38101;53.126;6.878;2023-06-14T07:07:28;18.50;97.40
52103;DHT22;38101;53.126;6.878;2023-06-14T07:09:53;18.60;97.20
52103;DHT22;38101;53.126;6.878;2023-06-14T07:12:19;18.60;97.20
52103;DHT22;38101;53.126;6.878;2023-06-14T07:14:45;18.70;97.00
52103;DHT22;38101;53.126;6.878;2023-06-14T07:17:11;18.80;96.90
52103;DHT22;38101;53.126;6.878;2023-06-14T07:19:36;18.80;96.70
52103;DHT22;38101;53.126;6.878;2023-06-14T07:22:02;19.00;96.60
52103;DHT22;38101;53.126;6.878;2023-06-14T07:24:28;19.00;96.30
52103;DHT22;38101;53.126;6.878;2023-06-14T07:26:54;19.10;96.10
52103;DHT22;38101;53.126;6.878;2023-06-14T07:29:20;19.20;96.10
52103;DHT22;38101;53.126;6.878;2023-06-14T07:31:46;19.30;95.70
52103;DHT22;38101;53.126;6.878;2023-06-14T07:34:12;19.30;95.30
52103;DHT22;38101;53.126;6.878;2023-06-14T07:36:38;19.40;95.20
52103;DHT22;38101;53.126;6.878;2023-06-14T07:39:04;19.50;94.80
52103;DHT22;38101;53.126;6.878;2023-06-14T07:41:31;19.50;94.30
52103;DHT22;38101;53.126;6.878;2023-06-14T07:43:57;19.60;94.40
52103;DHT22;38101;53.126;6.878;2023-06-14T07:46:22;19.60;94.30
52103;DHT22;38101;53.126;6.878;2023-06-14T07:48:48;19.70;94.50
52103;DHT22;38101;53.126;6.878;2023-06-14T07:51:14;19.70;94.20
52103;DHT22;38101;53.126;6.878;2023-06-14T07:53:39;19.80;94.20
52103;DHT22;38101;53.126;6.878;2023-06-14T07:56:06;19.90;94.20
52103;DHT22;38101;53.126;6.878;2023-06-14T07:58:32;20.00;94.00
52103;DHT22;38101;53.126;6.878;2023-06-14T08:00:58;20.10;93.50
52103;DHT22;38101;53.126;6.878;2023-06-14T08:03:23;20.10;93.60
52103;DHT22;38101;53.126;6.878;2023-06-14T08:05:49;20.10;93.30
52103;DHT22;38101;53.126;6.878;2023-06-14T08:08:15;20.20;93.20
52103;DHT22;38101;53.126;6.878;2023-06-14T08:10:41;20.20;93.40
52103;DHT22;38101;53.126;6.878;2023-06-14T08:13:07;20.30;93.30
52103;DHT22;38101;53.126;6.878;2023-06-14T08:15:34;20.30;93.30
52103;DHT22;38101;53.126;6.878;2023-06-14T08:18:00;20.40;93.40
52103;DHT22;38101;53.126;6.878;2023-06-14T08:20:26;20.50;93.30
52103;DHT22;38101;53.126;6.878;2023-06-14T08:22:52;20.60;92.70
52103;DHT22;38101;53.126;6.878;2023-06-14T08:25:22;20.60;92.70
52103;DHT22;38101;53.126;6.878;2023-06-14T08:27:48;20.60;92.60
52103;DHT22;38101;53.126;6.878;2023-06-14T08:30:14;20.70;92.60
52103;DHT22;38101;53.126;6.878;2023-06-14T08:32:39;20.80;92.70
52103;DHT22;38101;53.126;6.878;2023-06-14T08:35:05;20.80;92.70
52103;DHT22;38101;53.126;6.878;2023-06-14T08:37:32;20.90;92.50
52103;DHT22;38101;53.126;6.878;2023-06-14T08:40:02;21.00;92.60
52103;DHT22;38101;53.126;6.878;2023-06-14T08:42:32;21.00;92.60
52103;DHT22;38101;53.126;6.878;2023-06-14T08:44:57;21.10;92.40
52103;DHT22;38101;53.126;6.878;2023-06-14T08:47:24;21.10;92.40
52103;DHT22;38101;53.126;6.878;2023-06-14T08:49:53;21.10;92.40
52103;DHT22;38101;53.126;6.878;2023-06-14T08:52:21;21.20;92.40
52103;DHT22;38101;53.126;6.878;2023-06-14T08:54:48;21.20;92.50
52103;DHT22;38101;53.126;6.878;2023-06-14T08:57:14;21.30;92.40
52103;DHT22;38101;53.126;6.878;2023-06-14T08:59:47;21.30;92.30
52103;DHT22;38101;53.126;6.878;2023-06-14T09:02:18;21.40;92.10
52103;DHT22;38101;53.126;6.878;2023-06-14T09:04:45;21.40;91.90
52103;DHT22;38101;53.126;6.878;2023-06-14T09:07:11;21.50;91.50
52103;DHT22;38101;53.126;6.878;2023-06-14T09:09:41;21.50;90.90
52103;DHT22;38101;53.126;6.878;2023-06-14T09:12:10;21.60;90.90
52103;DHT22;38101;53.126;6.878;2023-06-14T09:14:36;21.60;91.00
52103;DHT22;38101;53.126;6.878;2023-06-14T09:17:05;21.70;90.90
52103;DHT22;38101;53.126;6.878;2023-06-14T09:19:31;21.80;90.90
52103;DHT22;38101;53.126;6.878;2023-06-14T09:21:57;21.90;90.80
52103;DHT22;38101;53.126;6.878;2023-06-14T09:24:24;22.00;90.90
52103;DHT22;38101;53.126;6.878;2023-06-14T09:26:51;22.00;90.80
52103;DHT22;38101;53.126;6.878;2023-06-14T09:29:18;22.10;90.70
52103;DHT22;38101;53.126;6.878;2023-06-14T09:31:47;22.20;90.50
52103;DHT22;38101;53.126;6.878;2023-06-14T09:34:13;22.20;90.70
52103;DHT22;38101;53.126;6.878;2023-06-14T09:36:40;22.20;90.60
52103;DHT22;38101;53.126;6.878;2023-06-14T09:39:08;22.30;90.20
52103;DHT22;38101;53.126;6.878;2023-06-14T09:41:39;22.40;89.40
52103;DHT22;38101;53.126;6.878;2023-06-14T09:44:09;22.50;89.70
52103;DHT22;38101;53.126;6.878;2023-06-14T09:46:36;22.50;90.20
52103;DHT22;38101;53.126;6.878;2023-06-14T09:49:02;22.50;90.30
52103;DHT22;38101;53.126;6.878;2023-06-14T09:51:29;22.60;90.20
52103;DHT22;38101;53.126;6.878;2023-06-14T09:54:02;22.60;89.10
52103;DHT22;38101;53.126;6.878;2023-06-14T09:56:35;22.70;89.80
52103;DHT22;38101;53.126;6.878;2023-06-14T09:59:04;22.80;88.70
52103;DHT22;38101;53.126;6.878;2023-06-14T10:01:31;22.80;87.10
52103;DHT22;38101;53.126;6.878;2023-06-14T10:04:05;22.80;86.20
52103;DHT22;38101;53.126;6.878;2023-06-14T10:06:32;22.90;87.20
52103;DHT22;38101;53.126;6.878;2023-06-14T10:08:59;22.90;87.30
52103;DHT22;38101;53.126;6.878;2023-06-14T10:11:26;23.00;87.80
52103;DHT22;38101;53.126;6.878;2023-06-14T10:13:54;23.10;87.70
52103;DHT22;38101;53.126;6.878;2023-06-14T10:16:42;23.30;88.10
52103;DHT22;38101;53.126;6.878;2023-06-14T10:19:37;23.30;84.70
52103;DHT22;38101;53.126;6.878;2023-06-14T10:22:41;23.40;84.60
52103;DHT22;38101;53.126;6.878;2023-06-14T10:25:07;23.50;86.10
52103;DHT22;38101;53.126;6.878;2023-06-14T10:27:38;23.60;86.70
52103;DHT22;38101;53.126;6.878;2023-06-14T10:30:08;23.70;86.50
52103;DHT22;38101;53.126;6.878;2023-06-14T10:32:34;23.70;86.30
52103;DHT22;38101;53.126;6.878;2023-06-14T10:35:06;23.80;86.90
52103;DHT22;38101;53.126;6.878;2023-06-14T10:37:32;24.00;87.60
52103;DHT22;38101;53.126;6.878;2023-06-14T10:39:58;24.10;86.30
52103;DHT22;38101;53.126;6.878;2023-06-14T10:42:31;24.30;84.60
52103;DHT22;38101;53.126;6.878;2023-06-14T10:44:58;24.30;84.40
52103;DHT22;38101;53.126;6.878;2023-06-14T10:47:28;24.30;84.00
52103;DHT22;38101;53.126;6.878;2023-06-14T10:52:39;24.20;84.30
52103;DHT22;38101;53.126;6.878;2023-06-14T10:57:35;24.30;82.60
52103;DHT22;38101;53.126;6.878;2023-06-14T11:00:01;24.40;81.10
52103;DHT22;38101;53.126;6.878;2023-06-14T11:03:03;24.50;81.40
52103;DHT22;38101;53.126;6.878;2023-06-14T11:05:49;24.50;80.40
52103;DHT22;38101;53.126;6.878;2023-06-14T11:11:09;24.70;81.50
52103;DHT22;38101;53.126;6.878;2023-06-14T11:13:41;24.80;80.60
52103;DHT22;38101;53.126;6.878;2023-06-14T11:16:12;25.00;80.80
52103;DHT22;38101;53.126;6.878;2023-06-14T11:18:38;25.20;80.60
52103;DHT22;38101;53.126;6.878;2023-06-14T11:21:04;25.10;80.60
52103;DHT22;38101;53.126;6.878;2023-06-14T11:23:30;25.20;80.60
52103;DHT22;38101;53.126;6.878;2023-06-14T11:25:55;25.30;80.60
52103;DHT22;38101;53.126;6.878;2023-06-14T11:28:21;25.40;80.10
52103;DHT22;38101;53.126;6.878;2023-06-14T11:31:09;25.50;79.70
52103;DHT22;38101;53.126;6.878;2023-06-14T11:33:34;25.70;78.80
52103;DHT22;38101;53.126;6.878;2023-06-14T11:36:06;25.80;79.70
52103;DHT22;38101;53.126;6.878;2023-06-14T11:38:36;25.90;78.20
52103;DHT22;38101;53.126;6.878;2023-06-14T11:41:02;26.00;77.70
52103;DHT22;38101;53.126;6.878;2023-06-14T11:43:28;25.90;76.60
52103;DHT22;38101;53.126;6.878;2023-06-14T11:45:57;25.90;77.50
52103;DHT22;38101;53.126;6.878;2023-06-14T11:48:22;26.00;77.80
52103;DHT22;38101;53.126;6.878;2023-06-14T11:50:50;26.10;77.20
52103;DHT22;38101;53.126;6.878;2023-06-14T11:53:16;26.30;77.30
52103;DHT22;38101;53.126;6.878;2023-06-14T11:55:42;26.40;77.50
52103;DHT22;38101;53.126;6.878;2023-06-14T11:58:10;26.70;77.20
52103;DHT22;38101;53.126;6.878;2023-06-14T12:00:36;26.80;77.20
52103;DHT22;38101;53.126;6.878;2023-06-14T12:03:02;27.00;77.40
52103;DHT22;38101;53.126;6.878;2023-06-14T12:05:29;27.20;77.60
52103;DHT22;38101;53.126;6.878;2023-06-14T12:08:02;27.10;75.50
52103;DHT22;38101;53.126;6.878;2023-06-14T12:10:28;26.90;75.80
52103;DHT22;38101;53.126;6.878;2023-06-14T12:12:58;26.80;74.60
52103;DHT22;38101;53.126;6.878;2023-06-14T12:15:24;26.80;75.50
52103;DHT22;38101;53.126;6.878;2023-06-14T12:17:54;26.80;76.00
52103;DHT22;38101;53.126;6.878;2023-06-14T12:20:20;27.10;75.70
52103;DHT22;38101;53.126;6.878;2023-06-14T12:22:54;27.10;75.90
52103;DHT22;38101;53.126;6.878;2023-06-14T12:28:08;27.20;75.50
52103;DHT22;38101;53.126;6.878;2023-06-14T12:30:36;27.30;72.50
52103;DHT22;38101;53.126;6.878;2023-06-14T12:33:02;27.30;73.90
52103;DHT22;38101;53.126;6.878;2023-06-14T12:35:28;27.30;74.10
52103;DHT22;38101;53.126;6.878;2023-06-14T12:37:54;27.30;74.80
52103;DHT22;38101;53.126;6.878;2023-06-14T12:40:20;27.20;74.00
52103;DHT22;38101;53.126;6.878;2023-06-14T12:42:45;26.90;73.50
52103;DHT22;38101;53.126;6.878;2023-06-14T12:45:14;26.70;73.60
52103;DHT22;38101;53.126;6.878;2023-06-14T12:47:40;26.40;73.90
52103;DHT22;38101;53.126;6.878;2023-06-14T12:50:06;26.40;74.20
52103;DHT22;38101;53.126;6.878;2023-06-14T12:52:32;26.50;74.00
52103;DHT22;38101;53.126;6.878;2023-06-14T12:55:03;26.70;74.90
52103;DHT22;38101;53.126;6.878;2023-06-14T12:57:29;27.00;75.00
52103;DHT22;38101;53.126;6.878;2023-06-14T12:59:54;27.20;74.70
52103;DHT22;38101;53.126;6.878;2023-06-14T13:02:20;27.50;74.90
52103;DHT22;38101;53.126;6.878;2023-06-14T13:04:47;27.80;75.20
52103;DHT22;38101;53.126;6.878;2023-06-14T13:07:13;27.70;73.20
52103;DHT22;38101;53.126;6.878;2023-06-14T13:09:40;27.60;73.10
52103;DHT22;38101;53.126;6.878;2023-06-14T13:12:07;27.50;72.90
52103;DHT22;38101;53.126;6.878;2023-06-14T13:14:33;27.60;73.20
52103;DHT22;38101;53.126;6.878;2023-06-14T13:16:58;27.70;72.80
52103;DHT22;38101;53.126;6.878;2023-06-14T13:19:24;27.60;71.90
52103;DHT22;38101;53.126;6.878;2023-06-14T13:21:50;27.50;71.50
52103;DHT22;38101;53.126;6.878;2023-06-14T13:24:16;27.50;72.60
52103;DHT22;38101;53.126;6.878;2023-06-14T13:26:42;27.70;73.10
52103;DHT22;38101;53.126;6.878;2023-06-14T13:29:07;27.90;72.70
52103;DHT22;38101;53.126;6.878;2023-06-14T13:31:33;28.10;72.70
52103;DHT22;38101;53.126;6.878;2023-06-14T13:33:59;28.20;72.80
52103;DHT22;38101;53.126;6.878;2023-06-14T13:36:24;28.40;72.50
52103;DHT22;38101;53.126;6.878;2023-06-14T13:38:50;28.50;71.60
52103;DHT22;38101;53.126;6.878;2023-06-14T13:41:18;28.40;70.90
52103;DHT22;38101;53.126;6.878;2023-06-14T13:43:43;28.20;70.50
52103;DHT22;38101;53.126;6.878;2023-06-14T13:46:09;28.00;70.70
52103;DHT22;38101;53.126;6.878;2023-06-14T13:48:35;28.00;71.10
52103;DHT22;38101;53.126;6.878;2023-06-14T13:51:00;27.90;72.10
52103;DHT22;38101;53.126;6.878;2023-06-14T13:53:26;28.00;71.20
52103;DHT22;38101;53.126;6.878;2023-06-14T13:55:52;28.20;70.90
52103;DHT22;38101;53.126;6.878;2023-06-14T13:58:19;28.40;71.10
52103;DHT22;38101;53.126;6.878;2023-06-14T14:00:44;28.50;71.70
52103;DHT22;38101;53.126;6.878;2023-06-14T14:03:10;28.70;71.00
52103;DHT22;38101;53.126;6.878;2023-06-14T14:05:36;28.90;71.30
52103;DHT22;38101;53.126;6.878;2023-06-14T14:08:02;29.00;70.70
52103;DHT22;38101;53.126;6.878;2023-06-14T14:10:29;29.10;70.20
52103;DHT22;38101;53.126;6.878;2023-06-14T14:12:55;29.20;70.00
52103;DHT22;38101;53.126;6.878;2023-06-14T14:15:20;29.40;70.50
52103;DHT22;38101;53.126;6.878;2023-06-14T14:17:46;29.40;69.90
52103;DHT22;38101;53.126;6.878;2023-06-14T14:20:12;29.10;68.60
52103;DHT22;38101;53.126;6.878;2023-06-14T14:22:41;28.90;68.50
52103;DHT22;38101;53.126;6.878;2023-06-14T14:25:08;28.50;68.80
52103;DHT22;38101;53.126;6.878;2023-06-14T14:27:34;28.30;69.60
52103;DHT22;38101;53.126;6.878;2023-06-14T14:30:00;28.30;70.50
52103;DHT22;38101;53.126;6.878;2023-06-14T14:32:25;28.50;69.90
52103;DHT22;38101;53.126;6.878;2023-06-14T14:34:51;28.40;70.00
52103;DHT22;38101;53.126;6.878;2023-06-14T14:37:17;28.40;69.20
52103;DHT22;38101;53.126;6.878;2023-06-14T14:39:44;28.10;69.30
52103;DHT22;38101;53.126;6.878;2023-06-14T14:42:11;27.90;68.90
52103;DHT22;38101;53.126;6.878;2023-06-14T14:44:38;27.70;68.20
52103;DHT22;38101;53.126;6.878;2023-06-14T14:47:05;27.60;69.10
52103;DHT22;38101;53.126;6.878;2023-06-14T14:49:33;27.80;69.80
52103;DHT22;38101;53.126;6.878;2023-06-14T14:51:59;28.00;70.30
52103;DHT22;38101;53.126;6.878;2023-06-14T14:54:25;28.30;70.30
52103;DHT22;38101;53.126;6.878;2023-06-14T14:56:51;28.70;70.20
52103;DHT22;38101;53.126;6.878;2023-06-14T14:59:17;28.90;69.30
52103;DHT22;38101;53.126;6.878;2023-06-14T15:01:44;29.00;68.20
52103;DHT22;38101;53.126;6.878;2023-06-14T15:04:11;28.80;69.90
52103;DHT22;38101;53.126;6.878;2023-06-14T15:06:37;28.40;70.50
52103;DHT22;38101;53.126;6.878;2023-06-14T15:09:03;27.90;71.20
52103;DHT22;38101;53.126;6.878;2023-06-14T15:11:29;27.70;72.40
52103;DHT22;38101;53.126;6.878;2023-06-14T15:13:54;27.80;73.00
52103;DHT22;38101;53.126;6.878;2023-06-14T15:16:20;27.80;73.20
52103;DHT22;38101;53.126;6.878;2023-06-14T15:18:46;27.90;72.80
52103;DHT22;38101;53.126;6.878;2023-06-14T15:21:12;28.10;72.80
52103;DHT22;38101;53.126;6.878;2023-06-14T15:23:38;28.30;73.00
52103;DHT22;38101;53.126;6.878;2023-06-14T15:26:04;28.40;73.10
52103;DHT22;38101;53.126;6.878;2023-06-14T15:28:30;28.50;73.20
52103;DHT22;38101;53.126;6.878;2023-06-14T15:30:58;28.50;73.80
52103;DHT22;38101;53.126;6.878;2023-06-14T15:33:24;28.50;73.20
52103;DHT22;38101;53.126;6.878;2023-06-14T15:35:50;28.30;74.00
52103;DHT22;38101;53.126;6.878;2023-06-14T15:38:16;28.10;72.90
52103;DHT22;38101;53.126;6.878;2023-06-14T15:40:44;28.00;72.60
52103;DHT22;38101;53.126;6.878;2023-06-14T15:43:11;28.00;73.10